sensor_id;sensor_type;location;lat;lon;timestamp;P1;durP1;ratioP1;P2;durP2;ratioP2
78542;SDS011;67836;52.430;14.446;2023-07-13T00:00:09;6.25;;;2.58;;
78542;SDS011;67836;52.430;14.446;2023-07-13T00:02:53;4.50;;;2.30;;
78542;SDS011;67836;52.430;14.446;2023-07-13T00:05:38;4.72;;;2.42;;
78542;SDS011;67836;52.430;14.446;2023-07-13T00:08:21;6.28;;;2.55;;
78542;SDS011;67836;52.430;14.446;2023-07-13T00:11:06;5.93;;;2.70;;
78542;SDS011;67836;52.430;14.446;2023-07-13T00:13:50;6.50;;;2.85;;
78542;SDS011;67836;52.430;14.446;2023-07-13T00:16:35;5.57;;;2.35;;
78542;SDS011;67836;52.430;14.446;2023-07-13T00:19:20;4.65;;;2.33;;
78542;SDS011;67836;52.430;14.446;2023-07-13T00:22:04;5.13;;;2.55;;
78542;SDS011;67836;52.430;14.446;2023-07-13T00:24:48;5.22;;;2.60;;
78542;SDS011;67836;52.430;14.446;2023-07-13T00:27:32;5.70;;;2.60;;
78542;SDS011;67836;52.430;14.446;2023-07-13T00:30:17;5.63;;;2.80;;
78542;SDS011;67836;52.430;14.446;2023-07-13T00:33:01;5.97;;;2.90;;
78542;SDS011;67836;52.430;14.446;2023-07-13T00:38:28;6.53;;;2.72;;
78542;SDS011;67836;52.430;14.446;2023-07-13T00:41:12;5.13;;;2.67;;
78542;SDS011;67836;52.430;14.446;2023-07-13T00:43:56;6.47;;;2.80;;
78542;SDS011;67836;52.430;14.446;2023-07-13T00:46:41;4.75;;;2.35;;
78542;SDS011;67836;52.430;14.446;2023-07-13T00:49:25;4.95;;;2.60;;
78542;SDS011;67836;52.430;14.446;2023-07-13T00:52:10;4.70;;;2.60;;
78542;SDS011;67836;52.430;14.446;2023-07-13T00:54:55;6.32;;;2.83;;
78542;SDS011;67836;52.430;14.446;2023-07-13T00:57:39;5.40;;;2.70;;
78542;SDS011;67836;52.430;14.446;2023-07-13T01:00:24;8.30;;;3.20;;
78542;SDS011;67836;52.430;14.446;2023-07-13T01:03:09;6.03;;;3.00;;
78542;SDS011;67836;52.430;14.446;2023-07-13T01:05:53;6.03;;;3.15;;
78542;SDS011;67836;52.430;14.446;2023-07-13T01:08:38;5.32;;;2.85;;
78542;SDS011;67836;52.430;14.446;2023-07-13T01:11:23;5.72;;;2.75;;
78542;SDS011;67836;52.430;14.446;2023-07-13T01:14:07;7.07;;;2.45;;
78542;SDS011;67836;52.430;14.446;2023-07-13T01:16:52;4.95;;;2.80;;
78542;SDS011;67836;52.430;14.446;2023-07-13T01:19:41;5.25;;;2.83;;
78542;SDS011;67836;52.430;14.446;2023-07-13T01:22:26;8.82;;;2.83;;
78542;SDS011;67836;52.430;14.446;2023-07-13T01:25:10;6.75;;;2.88;;
78542;SDS011;67836;52.430;14.446;2023-07-13T01:27:54;5.40;;;2.80;;
78542;SDS011;67836;52.430;14.446;2023-07-13T01:30:39;7.40;;;3.10;;
78542;SDS011;67836;52.430;14.446;2023-07-13T01:33:24;5.53;;;2.88;;
78542;SDS011;67836;52.430;14.446;2023-07-13T01:36:09;7.05;;;3.33;;
78542;SDS011;67836;52.430;14.446;2023-07-13T01:38:54;7.60;;;3.10;;
78542;SDS011;67836;52.430;14.446;2023-07-13T01:41:38;6.55;;;3.35;;
78542;SDS011;67836;52.430;14.446;2023-07-13T01:44:22;5.65;;;3.00;;
78542;SDS011;67836;52.430;14.446;2023-07-13T01:47:06;6.47;;;2.97;;
78542;SDS011;67836;52.430;14.446;2023-07-13T01:49:50;7.22;;;2.92;;
78542;SDS011;67836;52.430;14.446;2023-07-13T01:52:35;6.35;;;3.50;;
78542;SDS011;67836;52.430;14.446;2023-07-13T01:55:20;6.35;;;3.50;;
78542;SDS011;67836;52.430;14.446;2023-07-13T01:58:04;6.47;;;3.05;;
78542;SDS011;67836;52.430;14.446;2023-07-13T02:00:49;5.75;;;3.08;;
78542;SDS011;67836;52.430;14.446;2023-07-13T02:03:33;6.78;;;3.03;;
78542;SDS011;67836;52.430;14.446;2023-07-13T02:06:17;6.55;;;2.92;;
78542;SDS011;67836;52.430;14.446;2023-07-13T02:09:01;6.65;;;3.10;;
78542;SDS011;67836;52.430;14.446;2023-07-13T02:11:46;5.32;;;2.95;;
78542;SDS011;67836;52.430;14.446;2023-07-13T02:14:30;6.10;;;3.13;;
78542;SDS011;67836;52.430;14.446;2023-07-13T02:17:14;6.82;;;3.13;;
78542;SDS011;67836;52.430;14.446;2023-07-13T02:19:58;6.03;;;3.25;;
78542;SDS011;67836;52.430;14.446;2023-07-13T02:22:43;8.00;;;3.30;;
78542;SDS011;67836;52.430;14.446;2023-07-13T02:25:27;7.13;;;3.30;;
78542;SDS011;67836;52.430;14.446;2023-07-13T02:30:54;6.50;;;3.25;;
78542;SDS011;67836;52.430;14.446;2023-07-13T02:33:39;6.65;;;2.90;;
78542;SDS011;67836;52.430;14.446;2023-07-13T02:36:23;6.22;;;3.20;;
78542;SDS011;67836;52.430;14.446;2023-07-13T02:39:07;5.93;;;2.60;;
78542;SDS011;67836;52.430;14.446;2023-07-13T02:41:52;5.90;;;2.83;;
78542;SDS011;67836;52.430;14.446;2023-07-13T02:44:36;7.43;;;3.08;;
78542;SDS011;67836;52.430;14.446;2023-07-13T02:47:20;7.50;;;3.10;;
78542;SDS011;67836;52.430;14.446;2023-07-13T02:52:48;6.97;;;2.97;;
78542;SDS011;67836;52.430;14.446;2023-07-13T02:55:32;5.38;;;2.95;;
78542;SDS011;67836;52.430;14.446;2023-07-13T02:58:16;6.32;;;3.10;;
78542;SDS011;67836;52.430;14.446;2023-07-13T03:01:03;6.05;;;3.22;;
78542;SDS011;67836;52.430;14.446;2023-07-13T03:03:50;5.93;;;3.20;;
78542;SDS011;67836;52.430;14.446;2023-07-13T03:06:35;6.38;;;2.80;;
78542;SDS011;67836;52.430;14.446;2023-07-13T03:09:19;5.85;;;3.00;;
78542;SDS011;67836;52.430;14.446;2023-07-13T03:12:03;6.40;;;3.10;;
78542;SDS011;67836;52.430;14.446;2023-07-13T03:14:47;5.85;;;3.30;;
78542;SDS011;67836;52.430;14.446;2023-07-13T03:17:32;9.18;;;3.00;;
78542;SDS011;67836;52.430;14.446;2023-07-13T03:20:16;5.07;;;2.65;;
78542;SDS011;67836;52.430;14.446;2023-07-13T03:23:00;5.30;;;2.90;;
78542;SDS011;67836;52.430;14.446;2023-07-13T03:31:16;5.90;;;3.05;;
78542;SDS011;67836;52.430;14.446;2023-07-13T03:34:02;5.70;;;2.88;;
78542;SDS011;67836;52.430;14.446;2023-07-13T03:36:47;6.13;;;3.15;;
78542;SDS011;67836;52.430;14.446;2023-07-13T03:39:31;8.00;;;3.70;;
78542;SDS011;67836;52.430;14.446;2023-07-13T03:44:59;8.45;;;3.50;;
78542;SDS011;67836;52.430;14.446;2023-07-13T03:53:10;6.07;;;3.30;;
78542;SDS011;67836;52.430;14.446;2023-07-13T03:55:54;6.28;;;3.40;;
78542;SDS011;67836;52.430;14.446;2023-07-13T04:01:23;7.60;;;3.42;;
78542;SDS011;67836;52.430;14.446;2023-07-13T04:04:08;6.20;;;3.10;;
78542;SDS011;67836;52.430;14.446;2023-07-13T04:06:52;7.82;;;2.97;;
78542;SDS011;67836;52.430;14.446;2023-07-13T04:09:36;5.60;;;3.03;;
78542;SDS011;67836;52.430;14.446;2023-07-13T04:12:20;4.55;;;2.25;;
78542;SDS011;67836;52.430;14.446;2023-07-13T04:15:04;6.90;;;3.05;;
78542;SDS011;67836;52.430;14.446;2023-07-13T04:17:48;6.18;;;3.13;;
78542;SDS011;67836;52.430;14.446;2023-07-13T04:20:32;10.73;;;3.80;;
78542;SDS011;67836;52.430;14.446;2023-07-13T04:23:17;5.45;;;2.40;;
78542;SDS011;67836;52.430;14.446;2023-07-13T04:26:01;5.57;;;2.65;;
78542;SDS011;67836;52.430;14.446;2023-07-13T04:28:45;5.47;;;2.67;;
78542;SDS011;67836;52.430;14.446;2023-07-13T04:31:29;4.10;;;1.80;;
78542;SDS011;67836;52.430;14.446;2023-07-13T04:34:14;5.07;;;2.58;;
78542;SDS011;67836;52.430;14.446;2023-07-13T04:36:58;4.15;;;1.70;;
78542;SDS011;67836;52.430;14.446;2023-07-13T04:39:42;4.25;;;1.52;;
78542;SDS011;67836;52.430;14.446;2023-07-13T04:42:25;6.95;;;2.88;;
78542;SDS011;67836;52.430;14.446;2023-07-13T04:45:09;4.55;;;1.90;;
78542;SDS011;67836;52.430;14.446;2023-07-13T04:47:54;6.93;;;2.88;;
78542;SDS011;67836;52.430;14.446;2023-07-13T04:50:38;6.00;;;2.42;;
78542;SDS011;67836;52.430;14.446;2023-07-13T04:53:22;6.53;;;3.10;;
78542;SDS011;67836;52.430;14.446;2023-07-13T04:56:06;6.78;;;3.25;;
78542;SDS011;67836;52.430;14.446;2023-07-13T04:58:50;7.45;;;3.17;;
78542;SDS011;67836;52.430;14.446;2023-07-13T05:01:35;8.40;;;3.53;;
78542;SDS011;67836;52.430;14.446;2023-07-13T05:04:19;6.80;;;3.10;;
78542;SDS011;67836;52.430;14.446;2023-07-13T05:07:05;3.90;;;1.90;;
78542;SDS011;67836;52.430;14.446;2023-07-13T05:09:50;5.85;;;2.95;;
78542;SDS011;67836;52.430;14.446;2023-07-13T05:12:33;4.57;;;2.55;;
78542;SDS011;67836;52.430;14.446;2023-07-13T05:15:18;7.78;;;2.65;;
78542;SDS011;67836;52.430;14.446;2023-07-13T05:18:05;5.47;;;2.70;;
78542;SDS011;67836;52.430;14.446;2023-07-13T05:20:56;5.05;;;2.47;;
78542;SDS011;67836;52.430;14.446;2023-07-13T05:23:44;4.80;;;2.30;;
78542;SDS011;67836;52.430;14.446;2023-07-13T05:26:28;5.35;;;2.00;;
78542;SDS011;67836;52.430;14.446;2023-07-13T05:29:12;6.03;;;2.42;;
78542;SDS011;67836;52.430;14.446;2023-07-13T05:31:57;4.35;;;2.10;;
78542;SDS011;67836;52.430;14.446;2023-07-13T05:34:41;5.10;;;2.20;;
78542;SDS011;67836;52.430;14.446;2023-07-13T05:37:25;3.67;;;1.80;;
78542;SDS011;67836;52.430;14.446;2023-07-13T05:40:09;4.10;;;1.50;;
78542;SDS011;67836;52.430;14.446;2023-07-13T05:42:53;3.28;;;1.50;;
78542;SDS011;67836;52.430;14.446;2023-07-13T05:45:37;4.50;;;1.90;;
78542;SDS011;67836;52.430;14.446;2023-07-13T05:48:21;5.60;;;1.90;;
78542;SDS011;67836;52.430;14.446;2023-07-13T05:51:05;3.83;;;1.80;;
78542;SDS011;67836;52.430;14.446;2023-07-13T05:53:49;3.67;;;2.00;;
78542;SDS011;67836;52.430;14.446;2023-07-13T05:56:33;3.60;;;1.52;;
78542;SDS011;67836;52.430;14.446;2023-07-13T06:02:49;3.65;;;1.65;;
78542;SDS011;67836;52.430;14.446;2023-07-13T06:05:34;3.08;;;1.45;;
78542;SDS011;67836;52.430;14.446;2023-07-13T06:08:19;3.63;;;1.70;;
78542;SDS011;67836;52.430;14.446;2023-07-13T06:11:07;3.05;;;1.33;;
78542;SDS011;67836;52.430;14.446;2023-07-13T06:13:55;4.20;;;1.40;;
78542;SDS011;67836;52.430;14.446;2023-07-13T06:16:40;4.03;;;1.27;;
78542;SDS011;67836;52.430;14.446;2023-07-13T06:19:24;2.97;;;1.10;;
78542;SDS011;67836;52.430;14.446;2023-07-13T06:22:08;3.70;;;1.25;;
78542;SDS011;67836;52.430;14.446;2023-07-13T06:24:52;1.70;;;0.93;;
78542;SDS011;67836;52.430;14.446;2023-07-13T06:27:36;2.22;;;1.10;;
78542;SDS011;67836;52.430;14.446;2023-07-13T06:30:20;1.08;;;0.80;;
78542;SDS011;67836;52.430;14.446;2023-07-13T06:33:05;3.22;;;1.20;;
78542;SDS011;67836;52.430;14.446;2023-07-13T06:35:49;2.47;;;1.00;;
78542;SDS011;67836;52.430;14.446;2023-07-13T06:38:33;2.17;;;0.90;;
78542;SDS011;67836;52.430;14.446;2023-07-13T06:41:18;2.90;;;1.10;;
78542;SDS011;67836;52.430;14.446;2023-07-13T06:44:07;3.53;;;1.30;;
78542;SDS011;67836;52.430;14.446;2023-07-13T06:46:52;2.45;;;1.20;;
78542;SDS011;67836;52.430;14.446;2023-07-13T06:49:36;4.47;;;1.48;;
78542;SDS011;67836;52.430;14.446;2023-07-13T06:52:20;2.05;;;1.00;;
78542;SDS011;67836;52.430;14.446;2023-07-13T06:55:04;4.60;;;1.48;;
78542;SDS011;67836;52.430;14.446;2023-07-13T06:57:48;4.00;;;1.30;;
78542;SDS011;67836;52.430;14.446;2023-07-13T07:00:31;2.13;;;1.30;;
78542;SDS011;67836;52.430;14.446;2023-07-13T07:03:16;4.97;;;1.35;;
78542;SDS011;67836;52.430;14.446;2023-07-13T07:06:06;6.38;;;1.88;;
78542;SDS011;67836;52.430;14.446;2023-07-13T07:08:56;1.75;;;0.80;;
78542;SDS011;67836;52.430;14.446;2023-07-13T07:11:40;3.33;;;1.50;;
78542;SDS011;67836;52.430;14.446;2023-07-13T07:14:25;4.30;;;1.63;;
78542;SDS011;67836;52.430;14.446;2023-07-13T07:17:09;1.83;;;1.05;;
78542;SDS011;67836;52.430;14.446;2023-07-13T07:19:53;4.00;;;1.52;;
78542;SDS011;67836;52.430;14.446;2023-07-13T07:22:37;5.45;;;1.50;;
78542;SDS011;67836;52.430;14.446;2023-07-13T07:25:21;2.45;;;1.33;;
78542;SDS011;67836;52.430;14.446;2023-07-13T07:28:05;3.92;;;1.45;;
78542;SDS011;67836;52.430;14.446;2023-07-13T07:30:52;4.75;;;1.70;;
78542;SDS011;67836;52.430;14.446;2023-07-13T07:33:36;3.70;;;1.60;;
78542;SDS011;67836;52.430;14.446;2023-07-13T07:36:20;5.97;;;1.70;;
78542;SDS011;67836;52.430;14.446;2023-07-13T07:39:05;2.83;;;1.52;;
78542;SDS011;67836;52.430;14.446;2023-07-13T07:41:50;4.18;;;1.42;;
78542;SDS011;67836;52.430;14.446;2023-07-13T07:44:34;3.13;;;1.52;;
78542;SDS011;67836;52.430;14.446;2023-07-13T07:47:18;2.45;;;1.50;;
78542;SDS011;67836;52.430;14.446;2023-07-13T07:50:02;4.15;;;1.67;;
78542;SDS011;67836;52.430;14.446;2023-07-13T07:52:47;5.25;;;1.70;;
78542;SDS011;67836;52.430;14.446;2023-07-13T07:55:32;3.25;;;1.52;;
78542;SDS011;67836;52.430;14.446;2023-07-13T07:58:19;6.68;;;1.67;;
78542;SDS011;67836;52.430;14.446;2023-07-13T08:01:04;4.63;;;1.70;;
78542;SDS011;67836;52.430;14.446;2023-07-13T08:03:48;3.92;;;1.70;;
78542;SDS011;67836;52.430;14.446;2023-07-13T08:06:33;3.03;;;1.65;;
78542;SDS011;67836;52.430;14.446;2023-07-13T08:09:17;3.75;;;1.40;;
78542;SDS011;67836;52.430;14.446;2023-07-13T08:12:01;3.47;;;1.50;;
78542;SDS011;67836;52.430;14.446;2023-07-13T08:14:45;3.45;;;1.50;;
78542;SDS011;67836;52.430;14.446;2023-07-13T08:17:34;3.22;;;1.70;;
78542;SDS011;67836;52.430;14.446;2023-07-13T08:20:18;2.72;;;1.13;;
78542;SDS011;67836;52.430;14.446;2023-07-13T08:23:02;3.33;;;1.75;;
78542;SDS011;67836;52.430;14.446;2023-07-13T08:25:52;4.93;;;2.10;;
78542;SDS011;67836;52.430;14.446;2023-07-13T08:28:36;2.38;;;1.50;;
78542;SDS011;67836;52.430;14.446;2023-07-13T08:31:21;2.05;;;0.90;;
78542;SDS011;67836;52.430;14.446;2023-07-13T08:34:04;3.30;;;1.50;;
78542;SDS011;67836;52.430;14.446;2023-07-13T08:36:48;4.57;;;1.73;;
78542;SDS011;67836;52.430;14.446;2023-07-13T08:39:33;2.65;;;1.30;;
78542;SDS011;67836;52.430;14.446;2023-07-13T08:48:18;1.83;;;1.00;;
78542;SDS011;67836;52.430;14.446;2023-07-13T08:54:24;3.33;;;1.55;;
78542;SDS011;67836;52.430;14.446;2023-07-13T08:57:15;3.10;;;1.38;;
78542;SDS011;67836;52.430;14.446;2023-07-13T09:00:01;3.20;;;1.40;;
78542;SDS011;67836;52.430;14.446;2023-07-13T09:05:40;4.50;;;1.42;;
78542;SDS011;67836;52.430;14.446;2023-07-13T09:14:22;4.53;;;1.50;;
78542;SDS011;67836;52.430;14.446;2023-07-13T09:17:27;3.38;;;1.30;;
78542;SDS011;67836;52.430;14.446;2023-07-13T09:20:25;3.03;;;1.50;;
78542;SDS011;67836;52.430;14.446;2023-07-13T09:23:14;3.60;;;1.60;;
78542;SDS011;67836;52.430;14.446;2023-07-13T09:26:20;2.85;;;1.50;;
78542;SDS011;67836;52.430;14.446;2023-07-13T09:29:11;4.60;;;1.90;;
78542;SDS011;67836;52.430;14.446;2023-07-13T09:31:59;4.60;;;1.90;;
78542;SDS011;67836;52.430;14.446;2023-07-13T09:34:55;3.65;;;1.70;;
78542;SDS011;67836;52.430;14.446;2023-07-13T09:37:38;2.38;;;1.50;;
78542;SDS011;67836;52.430;14.446;2023-07-13T09:40:36;3.03;;;1.20;;
78542;SDS011;67836;52.430;14.446;2023-07-13T09:43:24;2.88;;;1.40;;
78542;SDS011;67836;52.430;14.446;2023-07-13T09:46:19;3.50;;;1.60;;
78542;SDS011;67836;52.430;14.446;2023-07-13T09:49:05;3.60;;;1.50;;
78542;SDS011;67836;52.430;14.446;2023-07-13T09:51:49;2.83;;;1.05;;
78542;SDS011;67836;52.430;14.446;2023-07-13T09:54:46;2.20;;;1.00;;
78542;SDS011;67836;52.430;14.446;2023-07-13T09:57:32;2.60;;;1.15;;
78542;SDS011;67836;52.430;14.446;2023-07-13T10:00:23;4.07;;;1.50;;
78542;SDS011;67836;52.430;14.446;2023-07-13T10:03:19;4.72;;;1.70;;
78542;SDS011;67836;52.430;14.446;2023-07-13T10:06:16;4.93;;;1.80;;
78542;SDS011;67836;52.430;14.446;2023-07-13T10:09:02;3.22;;;1.92;;
78542;SDS011;67836;52.430;14.446;2023-07-13T10:11:46;2.40;;;1.40;;
78542;SDS011;67836;52.430;14.446;2023-07-13T10:14:30;4.20;;;1.58;;
78542;SDS011;67836;52.430;14.446;2023-07-13T10:17:14;4.78;;;1.50;;
78542;SDS011;67836;52.430;14.446;2023-07-13T10:19:59;3.88;;;1.40;;
78542;SDS011;67836;52.430;14.446;2023-07-13T10:25:44;3.78;;;1.10;;
78542;SDS011;67836;52.430;14.446;2023-07-13T10:28:30;5.10;;;1.52;;
78542;SDS011;67836;52.430;14.446;2023-07-13T10:31:17;5.57;;;1.63;;
78542;SDS011;67836;52.430;14.446;2023-07-13T10:34:01;2.97;;;1.40;;
78542;SDS011;67836;52.430;14.446;2023-07-13T10:36:46;3.80;;;1.33;;
78542;SDS011;67836;52.430;14.446;2023-07-13T10:39:30;3.33;;;1.40;;
78542;SDS011;67836;52.430;14.446;2023-07-13T10:42:20;3.20;;;1.60;;
78542;SDS011;67836;52.430;14.446;2023-07-13T10:45:21;5.28;;;1.80;;
78542;SDS011;67836;52.430;14.446;2023-07-13T10:48:06;3.10;;;1.50;;
78542;SDS011;67836;52.430;14.446;2023-07-13T10:50:54;2.50;;;1.10;;
78542;SDS011;67836;52.430;14.446;2023-07-13T10:53:38;4.85;;;1.60;;
78542;SDS011;67836;52.430;14.446;2023-07-13T10:56:29;3.85;;;1.60;;
78542;SDS011;67836;52.430;14.446;2023-07-13T10:59:17;3.58;;;1.52;;
78542;SDS011;67836;52.430;14.446;2023-07-13T11:04:52;1.83;;;0.77;;
78542;SDS011;67836;52.430;14.446;2023-07-13T11:07:51;4.07;;;1.52;;
78542;SDS011;67836;52.430;14.446;2023-07-13T11:10:47;2.55;;;1.40;;
78542;SDS011;67836;52.430;14.446;2023-07-13T11:13:37;3.47;;;1.50;;
78542;SDS011;67836;52.430;14.446;2023-07-13T11:16:35;2.42;;;1.40;;
78542;SDS011;67836;52.430;14.446;2023-07-13T11:19:27;4.03;;;1.50;;
78542;SDS011;67836;52.430;14.446;2023-07-13T11:22:12;2.55;;;1.35;;
78542;SDS011;67836;52.430;14.446;2023-07-13T11:24:59;3.85;;;1.30;;
78542;SDS011;67836;52.430;14.446;2023-07-13T11:27:45;4.13;;;1.70;;
78542;SDS011;67836;52.430;14.446;2023-07-13T11:33:15;2.45;;;1.17;;
78542;SDS011;67836;52.430;14.446;2023-07-13T11:36:07;3.03;;;1.35;;
78542;SDS011;67836;52.430;14.446;2023-07-13T11:39:17;4.05;;;1.45;;
78542;SDS011;67836;52.430;14.446;2023-07-13T11:42:03;2.38;;;1.27;;
78542;SDS011;67836;52.430;14.446;2023-07-13T11:44:49;4.53;;;1.63;;
78542;SDS011;67836;52.430;14.446;2023-07-13T11:47:39;2.65;;;1.35;;
78542;SDS011;67836;52.430;14.446;2023-07-13T11:50:24;3.95;;;1.45;;
78542;SDS011;67836;52.430;14.446;2023-07-13T11:53:08;2.00;;;0.98;;
78542;SDS011;67836;52.430;14.446;2023-07-13T11:55:53;3.90;;;1.60;;
78542;SDS011;67836;52.430;14.446;2023-07-13T11:58:38;4.72;;;1.70;;
78542;SDS011;67836;52.430;14.446;2023-07-13T12:01:24;2.95;;;1.30;;
78542;SDS011;67836;52.430;14.446;2023-07-13T12:04:20;4.20;;;1.50;;
78542;SDS011;67836;52.430;14.446;2023-07-13T12:07:07;2.33;;;1.30;;
78542;SDS011;67836;52.430;14.446;2023-07-13T12:13:01;1.83;;;0.90;;
78542;SDS011;67836;52.430;14.446;2023-07-13T12:15:47;3.63;;;1.30;;
78542;SDS011;67836;52.430;14.446;2023-07-13T12:18:32;4.85;;;1.30;;
78542;SDS011;67836;52.430;14.446;2023-07-13T12:21:18;4.13;;;1.55;;
78542;SDS011;67836;52.430;14.446;2023-07-13T12:24:02;2.97;;;1.20;;
78542;SDS011;67836;52.430;14.446;2023-07-13T12:26:51;2.35;;;1.00;;
78542;SDS011;67836;52.430;14.446;2023-07-13T12:29:48;1.55;;;0.90;;
78542;SDS011;67836;52.430;14.446;2023-07-13T12:32:33;2.55;;;1.48;;
78542;SDS011;67836;52.430;14.446;2023-07-13T12:35:17;3.10;;;1.55;;
78542;SDS011;67836;52.430;14.446;2023-07-13T12:38:02;3.60;;;1.10;;
78542;SDS011;67836;52.430;14.446;2023-07-13T12:40:48;3.85;;;1.33;;
78542;SDS011;67836;52.430;14.446;2023-07-13T12:43:33;1.70;;;0.98;;
78542;SDS011;67836;52.430;14.446;2023-07-13T12:46:23;2.17;;;1.33;;
78542;SDS011;67836;52.430;14.446;2023-07-13T12:49:07;4.15;;;1.50;;
78542;SDS011;67836;52.430;14.446;2023-07-13T12:51:55;3.40;;;1.30;;
78542;SDS011;67836;52.430;14.446;2023-07-13T12:54:41;4.95;;;1.70;;
78542;SDS011;67836;52.430;14.446;2023-07-13T12:57:24;3.47;;;1.67;;
78542;SDS011;67836;52.430;14.446;2023-07-13T13:00:29;4.50;;;1.40;;
78542;SDS011;67836;52.430;14.446;2023-07-13T13:03:20;3.47;;;1.48;;
78542;SDS011;67836;52.430;14.446;2023-07-13T13:06:17;2.55;;;1.35;;
78542;SDS011;67836;52.430;14.446;2023-07-13T13:09:09;5.45;;;1.60;;
78542;SDS011;67836;52.430;14.446;2023-07-13T13:11:57;4.28;;;1.70;;
78542;SDS011;67836;52.430;14.446;2023-07-13T13:14:41;5.10;;;1.70;;
78542;SDS011;67836;52.430;14.446;2023-07-13T13:17:27;5.53;;;1.40;;
78542;SDS011;67836;52.430;14.446;2023-07-13T13:20:17;2.78;;;1.67;;
78542;SDS011;67836;52.430;14.446;2023-07-13T13:23:07;4.18;;;2.00;;
78542;SDS011;67836;52.430;14.446;2023-07-13T13:25:54;3.05;;;1.60;;
78542;SDS011;67836;52.430;14.446;2023-07-13T13:28:39;3.72;;;1.40;;
78542;SDS011;67836;52.430;14.446;2023-07-13T13:31:23;2.47;;;1.20;;
78542;SDS011;67836;52.430;14.446;2023-07-13T13:34:08;3.83;;;1.30;;
78542;SDS011;67836;52.430;14.446;2023-07-13T13:36:53;3.28;;;1.52;;
78542;SDS011;67836;52.430;14.446;2023-07-13T13:39:38;4.63;;;1.92;;
78542;SDS011;67836;52.430;14.446;2023-07-13T13:42:22;3.83;;;1.52;;
78542;SDS011;67836;52.430;14.446;2023-07-13T13:45:09;3.25;;;1.73;;
78542;SDS011;67836;52.430;14.446;2023-07-13T13:47:53;2.60;;;1.30;;
78542;SDS011;67836;52.430;14.446;2023-07-13T13:50:38;5.82;;;1.85;;
78542;SDS011;67836;52.430;14.446;2023-07-13T13:53:22;3.42;;;1.42;;
78542;SDS011;67836;52.430;14.446;2023-07-13T13:56:07;4.28;;;1.83;;
78542;SDS011;67836;52.430;14.446;2023-07-13T13:58:50;4.55;;;1.92;;
78542;SDS011;67836;52.430;14.446;2023-07-13T14:01:34;2.25;;;1.25;;
78542;SDS011;67836;52.430;14.446;2023-07-13T14:04:20;2.85;;;1.45;;
78542;SDS011;67836;52.430;14.446;2023-07-13T14:07:05;2.38;;;1.30;;
78542;SDS011;67836;52.430;14.446;2023-07-13T14:09:49;3.30;;;1.40;;
78542;SDS011;67836;52.430;14.446;2023-07-13T14:12:33;3.67;;;1.65;;
78542;SDS011;67836;52.430;14.446;2023-07-13T14:15:19;2.33;;;1.50;;
78542;SDS011;67836;52.430;14.446;2023-07-13T14:18:04;3.10;;;1.20;;
78542;SDS011;67836;52.430;14.446;2023-07-13T14:20:48;3.47;;;1.98;;
78542;SDS011;67836;52.430;14.446;2023-07-13T14:23:32;1.17;;;0.90;;
78542;SDS011;67836;52.430;14.446;2023-07-13T14:26:17;4.13;;;2.00;;
78542;SDS011;67836;52.430;14.446;2023-07-13T14:29:04;2.53;;;1.30;;
78542;SDS011;67836;52.430;14.446;2023-07-13T14:31:49;3.65;;;1.40;;
78542;SDS011;67836;52.430;14.446;2023-07-13T14:34:33;3.38;;;1.58;;
78542;SDS011;67836;52.430;14.446;2023-07-13T14:37:18;6.15;;;2.10;;
78542;SDS011;67836;52.430;14.446;2023-07-13T14:40:04;5.20;;;1.70;;
78542;SDS011;67836;52.430;14.446;2023-07-13T14:42:56;4.25;;;2.13;;
78542;SDS011;67836;52.430;14.446;2023-07-13T14:45:41;3.38;;;1.60;;
78542;SDS011;67836;52.430;14.446;2023-07-13T14:48:27;2.92;;;1.35;;
78542;SDS011;67836;52.430;14.446;2023-07-13T14:51:11;4.70;;;1.70;;
78542;SDS011;67836;52.430;14.446;2023-07-13T14:53:55;2.53;;;1.17;;
78542;SDS011;67836;52.430;14.446;2023-07-13T14:56:39;5.35;;;2.22;;
78542;SDS011;67836;52.430;14.446;2023-07-13T14:59:23;4.70;;;2.00;;
78542;SDS011;67836;52.430;14.446;2023-07-13T15:02:15;4.47;;;1.73;;
78542;SDS011;67836;52.430;14.446;2023-07-13T15:05:01;4.47;;;1.65;;
78542;SDS011;67836;52.430;14.446;2023-07-13T15:07:45;5.65;;;1.77;;
78542;SDS011;67836;52.430;14.446;2023-07-13T15:10:30;4.85;;;1.80;;
78542;SDS011;67836;52.430;14.446;2023-07-13T15:13:16;3.38;;;1.80;;
78542;SDS011;67836;52.430;14.446;2023-07-13T15:16:01;3.45;;;1.58;;
78542;SDS011;67836;52.430;14.446;2023-07-13T15:18:45;4.55;;;1.52;;
78542;SDS011;67836;52.430;14.446;2023-07-13T15:21:29;5.18;;;1.88;;
78542;SDS011;67836;52.430;14.446;2023-07-13T15:24:18;5.50;;;1.88;;
78542;SDS011;67836;52.430;14.446;2023-07-13T15:27:02;4.03;;;1.83;;
78542;SDS011;67836;52.430;14.446;2023-07-13T15:29:46;3.03;;;1.40;;
78542;SDS011;67836;52.430;14.446;2023-07-13T15:32:30;4.55;;;1.88;;
78542;SDS011;67836;52.430;14.446;2023-07-13T15:35:21;5.63;;;1.80;;
78542;SDS011;67836;52.430;14.446;2023-07-13T15:38:15;3.40;;;1.67;;
78542;SDS011;67836;52.430;14.446;2023-07-13T15:41:26;3.53;;;1.77;;
78542;SDS011;67836;52.430;14.446;2023-07-13T15:44:23;3.67;;;2.40;;
78542;SDS011;67836;52.430;14.446;2023-07-13T15:47:13;2.97;;;1.13;;
78542;SDS011;67836;52.430;14.446;2023-07-13T15:49:58;2.75;;;1.33;;
78542;SDS011;67836;52.430;14.446;2023-07-13T15:52:43;2.78;;;1.30;;
78542;SDS011;67836;52.430;14.446;2023-07-13T15:55:28;3.00;;;1.40;;
78542;SDS011;67836;52.430;14.446;2023-07-13T15:58:13;4.30;;;1.50;;
78542;SDS011;67836;52.430;14.446;2023-07-13T16:00:58;2.88;;;1.38;;
78542;SDS011;67836;52.430;14.446;2023-07-13T16:03:42;2.92;;;1.52;;
78542;SDS011;67836;52.430;14.446;2023-07-13T16:06:28;1.58;;;1.00;;
78542;SDS011;67836;52.430;14.446;2023-07-13T16:09:19;3.75;;;1.48;;
78542;SDS011;67836;52.430;14.446;2023-07-13T16:12:15;3.22;;;1.48;;
78542;SDS011;67836;52.430;14.446;2023-07-13T16:14:59;4.25;;;1.38;;
78542;SDS011;67836;52.430;14.446;2023-07-13T16:17:44;4.53;;;1.50;;
78542;SDS011;67836;52.430;14.446;2023-07-13T16:20:29;3.75;;;1.30;;
78542;SDS011;67836;52.430;14.446;2023-07-13T16:23:14;2.90;;;1.40;;
78542;SDS011;67836;52.430;14.446;2023-07-13T16:25:59;2.05;;;1.17;;
78542;SDS011;67836;52.430;14.446;2023-07-13T16:28:43;3.28;;;1.10;;
78542;SDS011;67836;52.430;14.446;2023-07-13T16:31:29;2.80;;;1.25;;
78542;SDS011;67836;52.430;14.446;2023-07-13T16:34:16;4.57;;;1.35;;
78542;SDS011;67836;52.430;14.446;2023-07-13T16:37:01;3.30;;;1.80;;
78542;SDS011;67836;52.430;14.446;2023-07-13T16:39:50;4.75;;;1.30;;
78542;SDS011;67836;52.430;14.446;2023-07-13T16:42:41;2.15;;;0.85;;
78542;SDS011;67836;52.430;14.446;2023-07-13T16:45:27;3.63;;;1.20;;
78542;SDS011;67836;52.430;14.446;2023-07-13T16:48:20;2.90;;;1.33;;
78542;SDS011;67836;52.430;14.446;2023-07-13T16:51:05;2.97;;;1.20;;
78542;SDS011;67836;52.430;14.446;2023-07-13T16:53:50;5.35;;;1.65;;
78542;SDS011;67836;52.430;14.446;2023-07-13T16:56:34;3.25;;;1.73;;
78542;SDS011;67836;52.430;14.446;2023-07-13T16:59:18;1.98;;;1.05;;
78542;SDS011;67836;52.430;14.446;2023-07-13T17:05:05;3.55;;;1.30;;
78542;SDS011;67836;52.430;14.446;2023-07-13T17:07:52;2.97;;;1.33;;
78542;SDS011;67836;52.430;14.446;2023-07-13T17:10:36;1.75;;;0.95;;
78542;SDS011;67836;52.430;14.446;2023-07-13T17:13:21;3.47;;;1.13;;
78542;SDS011;67836;52.430;14.446;2023-07-13T17:16:08;2.70;;;0.70;;
78542;SDS011;67836;52.430;14.446;2023-07-13T17:18:52;1.63;;;0.77;;
78542;SDS011;67836;52.430;14.446;2023-07-13T17:21:36;2.47;;;0.90;;
78542;SDS011;67836;52.430;14.446;2023-07-13T17:24:25;2.72;;;0.73;;